Time;durP1;ratioP1;P1;durP2;ratioP2;P2;SDS_P1;SDS_P2;PMS_P1;PMS_P2;Temp;Humidity;BMP_temperature;BMP_pressure;BME280_temperature;BME280_humidity;BME280_pressure;Samples;Min_cycle;Max_cycle;Signal;HPM_P1;HPM_P2
2022/06/05 00:01:02;;;;;;;0.40;0.40;;;;;;;12.73;67.84;99240.22;4789165;30;20121;-88
2022/06/05 00:03:47;;;;;;;0.40;0.40;;;;;;;12.72;67.87;99241.31;4793306;29;20055;-90
2022/06/05 00:06:22;;;;;;;0.40;0.40;;;;;;;12.67;67.93;99235.03;4777253;30;20070;-89
2022/06/05 00:09:00;;;;;;;0.40;0.40;;;;;;;12.63;68.18;99236.59;4788026;30;20507;-88
2022/06/05 00:11:32;;;;;;;0.40;0.40;;;;;;;12.59;68.63;99228.16;4788114;30;20944;-89
2022/06/05 00:13:59;;;;;;;0.40;0.40;;;;;;;12.50;68.81;99225.06;4773366;30;20128;-88
2022/06/05 00:16:30;;;;;;;0.40;0.40;;;;;;;12.51;69.20;99232.13;4788888;29;20059;-87
2022/06/05 00:18:58;;;;;;;0.40;0.40;;;;;;;12.45;69.83;99226.88;4789891;30;20546;-86
2022/06/05 00:21:25;;;;;;;0.40;0.40;;;;;;;12.38;70.24;99216.25;4788366;29;20473;-88
2022/06/05 00:23:53;;;;;;;0.40;0.40;;;;;;;12.36;70.28;99213.00;4787600;29;20051;-88
2022/06/05 00:26:38;;;;;;;0.40;0.40;;;;;;;12.33;71.52;99208.06;4789689;29;20545;-88
2022/06/05 00:29:12;;;;;;;0.40;0.40;;;;;;;12.27;71.79;99206.38;4788912;29;20062;-88
2022/06/05 00:31:47;;;;;;;0.40;0.40;;;;;;;12.22;72.26;99192.75;4788839;30;20136;-88
2022/06/05 00:34:15;;;;;;;0.40;0.40;;;;;;;12.21;72.79;99196.56;4787570;30;20063;-87
2022/06/05 00:37:03;;;;;;;0.40;0.40;;;;;;;12.18;73.41;99206.00;4787070;30;20113;-88
2022/06/05 00:39:40;;;;;;;0.40;0.40;;;;;;;12.17;73.68;99196.22;4787523;30;20116;-88
2022/06/05 00:42:10;;;;;;;0.40;0.40;;;;;;;12.19;73.64;99190.56;4788109;29;20132;-87
2022/06/05 00:44:43;;;;;;;0.40;0.40;;;;;;;12.23;73.74;99194.38;4787083;29;20471;-88
2022/06/05 00:47:35;;;;;;;0.30;0.30;;;;;;;12.28;73.80;99195.31;4786983;30;20055;-88
2022/06/05 00:50:18;;;;;;;0.40;0.40;;;;;;;12.26;73.86;99196.63;4791834;30;20078;-88
2022/06/05 00:52:53;;;;;;;0.40;0.40;;;;;;;12.18;73.86;99189.75;4797199;30;20078;-88
2022/06/05 00:55:22;;;;;;;0.30;0.30;;;;;;;12.12;73.82;99194.25;4801209;29;20116;-88
2022/06/05 00:57:50;;;;;;;0.40;0.40;;;;;;;12.09;73.53;99186.66;4772513;30;20293;-88
2022/06/05 01:00:22;;;;;;;0.40;0.40;;;;;;;12.09;74.03;99185.84;4788350;29;20057;-88
2022/06/05 01:02:53;;;;;;;0.40;0.40;;;;;;;12.11;74.38;99172.88;4787735;29;20143;-86
2022/06/05 01:05:22;;;;;;;0.40;0.40;;;;;;;12.11;74.61;99178.28;4787055;30;20051;-88
2022/06/05 01:07:49;;;;;;;0.40;0.40;;;;;;;12.13;74.76;99171.56;4786817;29;20534;-88
2022/06/05 01:10:18;;;;;;;0.40;0.40;;;;;;;12.18;74.64;99178.09;4787490;29;20047;-88
2022/06/05 01:12:57;;;;;;;0.40;0.40;;;;;;;12.23;73.57;99180.88;4787294;30;20059;-88
2022/06/05 01:15:25;;;;;;;0.40;0.40;;;;;;;12.24;73.60;99171.69;4787879;29;20067;-88
2022/06/05 01:18:13;;;;;;;0.35;0.35;;;;;;;12.24;73.09;99177.09;4788000;29;20071;-89
2022/06/05 01:21:08;;;;;;;0.40;0.40;;;;;;;12.22;72.57;99174.63;4771709;30;20048;-88
2022/06/05 01:23:44;;;;;;;0.40;0.40;;;;;;;12.09;74.09;99165.00;4788928;29;20120;-88
2022/06/05 01:26:37;;;;;;;0.40;0.40;;;;;;;12.03;75.16;99171.44;4787232;29;20108;-88
2022/06/05 01:29:37;;;;;;;0.40;0.40;;;;;;;11.99;75.04;99175.69;4786796;30;20062;-88
2022/06/05 01:32:40;;;;;;;0.40;0.40;;;;;;;11.97;73.38;99177.81;4786724;30;20055;-88
2022/06/05 01:35:21;;;;;;;0.40;0.40;;;;;;;11.97;72.19;99160.78;4752696;30;20215;-86
2022/06/05 01:37:56;;;;;;;0.40;0.40;;;;;;;12.02;71.46;99167.06;4756023;30;20078;-88
2022/06/05 01:40:30;;;;;;;0.40;0.40;;;;;;;12.02;71.21;99161.66;4745894;30;20139;-87
2022/06/05 01:43:08;;;;;;;0.47;0.47;;;;;;;12.00;71.07;99160.28;4753916;30;20063;-88
2022/06/05 01:45:46;;;;;;;0.40;0.40;;;;;;;11.98;71.86;99162.44;4753370;30;20081;-87
2022/06/05 01:48:20;;;;;;;0.40;0.40;;;;;;;11.90;72.86;99156.38;4738868;30;20150;-88
2022/06/05 01:50:58;;;;;;;0.40;0.40;;;;;;;11.81;72.65;99154.31;4752285;30;20055;-87
2022/06/05 01:53:30;;;;;;;0.40;0.40;;;;;;;11.75;72.90;99147.19;4752109;30;20296;-88
2022/06/05 01:56:09;;;;;;;0.40;0.40;;;;;;;11.79;72.36;99151.84;4767913;30;20059;-87
2022/06/05 01:58:45;;;;;;;0.40;0.40;;;;;;;11.91;70.45;99149.09;4767389;30;20536;-88
2022/06/05 02:01:16;;;;;;;0.50;0.50;;;;;;;12.09;70.51;99159.59;4752816;30;20067;-87
2022/06/05 02:03:48;;;;;;;0.40;0.40;;;;;;;12.11;69.87;99154.75;4738068;30;20150;-87
2022/06/05 02:06:19;;;;;;;0.47;0.47;;;;;;;12.05;70.82;99149.53;4752266;30;20070;-88
2022/06/05 02:09:03;;;;;;;0.40;0.40;;;;;;;12.06;71.12;99154.69;4752570;30;20068;-87
2022/06/05 02:11:32;;;;;;;0.40;0.40;;;;;;;12.06;71.87;99154.69;4768380;30;20055;-88
2022/06/05 02:14:05;;;;;;;0.40;0.40;;;;;;;12.04;72.34;99146.00;4786330;29;20305;-88
2022/06/05 02:16:35;;;;;;;0.40;0.40;;;;;;;11.97;72.61;99147.25;4787304;29;20634;-88
2022/06/05 02:19:05;;;;;;;0.40;0.40;;;;;;;12.01;72.69;99149.22;4785857;29;20055;-88
2022/06/05 02:21:33;;;;;;;0.50;0.50;;;;;;;12.04;72.89;99128.97;4785483;29;20074;-88
2022/06/05 02:24:00;;;;;;;0.50;0.50;;;;;;;12.21;72.41;99145.97;4786613;29;20062;-88
2022/06/05 02:26:29;;;;;;;0.40;0.40;;;;;;;12.43;69.56;99154.06;4787207;29;20055;-88
2022/06/05 02:28:59;;;;;;;0.40;0.40;;;;;;;12.68;68.67;99136.47;4790780;29;20047;-88
2022/06/05 02:31:39;;;;;;;0.50;0.50;;;;;;;12.82;69.51;99143.13;4775131;30;20048;-87
2022/06/05 02:34:36;;;;;;;0.40;0.40;;;;;;;12.79;70.59;99139.03;4788946;29;20048;-87
2022/06/05 02:37:47;;;;;;;0.50;0.50;;;;;;;12.74;71.14;99124.63;4789069;30;20108;-87
2022/06/05 02:40:43;;;;;;;0.40;0.40;;;;;;;12.68;71.55;99134.56;4775597;30;20100;-87
2022/06/05 02:43:21;;;;;;;0.40;0.40;;;;;;;12.65;71.80;99139.69;4773404;30;20067;-88
2022/06/05 02:46:21;;;;;;;0.40;0.40;;;;;;;12.72;71.72;99134.88;4770300;30;20064;-89
2022/06/05 02:49:05;;;;;;;0.50;0.50;;;;;;;12.75;71.22;99137.06;4765126;30;20492;-87
2022/06/05 02:51:35;;;;;;;0.40;0.40;;;;;;;12.83;70.52;99131.19;4752246;30;20063;-88
2022/06/05 02:54:03;;;;;;;0.40;0.40;;;;;;;12.98;69.84;99127.81;4752480;30;20527;-87
2022/06/05 02:56:33;;;;;;;0.40;0.40;;;;;;;13.16;69.19;99134.75;4752571;30;20056;-86
2022/06/05 02:59:02;;;;;;;0.47;0.47;;;;;;;13.38;67.81;99131.97;4756501;30;20120;-86
2022/06/05 03:04:20;;;;;;;0.40;0.40;;;;;;;13.96;66.16;99127.47;4754519;30;20060;-88
2022/06/05 03:06:50;;;;;;;0.47;0.47;;;;;;;14.19;65.29;99118.06;4754661;30;20052;-87
2022/06/05 03:09:18;;;;;;;0.50;0.50;;;;;;;14.38;64.57;99120.28;4753162;30;20064;-90
2022/06/05 03:11:45;;;;;;;0.40;0.40;;;;;;;14.51;64.54;99109.75;4753163;30;20594;-86
2022/06/05 03:14:17;;;;;;;0.40;0.40;;;;;;;14.67;64.12;99110.63;4737788;30;20052;-86
2022/06/05 03:16:45;;;;;;;0.40;0.40;;;;;;;14.70;62.48;99104.66;4737891;30;20056;-88
2022/06/05 03:19:14;;;;;;;0.47;0.47;;;;;;;14.59;62.61;99105.75;4754067;30;20409;-88
2022/06/05 03:21:41;;;;;;;0.40;0.40;;;;;;;14.61;62.13;99111.72;4755223;30;20075;-87
2022/06/05 03:24:11;;;;;;;0.40;0.40;;;;;;;14.58;60.67;99133.16;4777375;30;20066;-87
2022/06/05 03:26:39;;;;;;;0.40;0.40;;;;;;;14.67;60.14;99135.09;4790346;29;20051;-87
2022/06/05 03:29:07;;;;;;;0.40;0.40;;;;;;;14.67;61.83;99120.69;4788867;29;20563;-86
2022/06/05 03:31:37;;;;;;;0.40;0.40;;;;;;;14.68;60.77;99112.25;4788738;29;20143;-87
2022/06/05 03:34:08;;;;;;;0.40;0.40;;;;;;;14.63;60.12;99125.81;4789888;29;20477;-88
2022/06/05 03:36:35;;;;;;;0.50;0.50;;;;;;;14.66;59.79;99124.47;4789111;29;20199;-88
2022/06/05 03:39:03;;;;;;;0.43;0.43;;;;;;;14.71;59.96;99100.88;4778334;29;20052;-90
2022/06/05 03:41:30;;;;;;;0.40;0.40;;;;;;;14.88;60.28;99100.59;4743875;30;20051;-87
2022/06/05 03:43:57;;;;;;;0.45;0.45;;;;;;;14.94;61.81;99109.59;4787987;29;20149;-90
2022/06/05 03:46:25;;;;;;;0.40;0.40;;;;;;;14.75;61.11;99106.56;4772695;30;20165;-89
2022/06/05 03:48:52;;;;;;;0.30;0.30;;;;;;;14.58;61.56;99097.84;4772877;30;20055;-84
2022/06/05 03:51:21;;;;;;;0.40;0.40;;;;;;;14.56;61.52;99094.56;4787098;29;20529;-86
2022/06/05 03:53:48;;;;;;;0.40;0.40;;;;;;;14.66;59.69;99090.00;4771008;30;20465;-89
2022/06/05 03:56:18;;;;;;;0.50;0.50;;;;;;;14.91;60.93;99112.84;4756330;30;20080;-88
2022/06/05 03:58:46;;;;;;;0.40;0.40;;;;;;;15.09;60.05;99122.34;4785186;30;20055;-88
2022/06/05 04:01:16;;;;;;;0.40;0.40;;;;;;;15.12;61.10;99116.41;4774053;30;20048;-88
2022/06/05 04:03:44;;;;;;;0.50;0.50;;;;;;;15.08;61.13;99105.25;4779662;30;20072;-90
2022/06/05 04:06:20;;;;;;;0.40;0.40;;;;;;;14.94;60.70;99098.72;4790878;30;20076;-90
2022/06/05 04:08:48;;;;;;;0.40;0.40;;;;;;;14.90;60.46;99100.34;4806179;29;20054;-91
2022/06/05 04:11:17;;;;;;;0.47;0.47;;;;;;;14.95;59.91;99103.06;4810779;29;20050;-91
2022/06/05 04:13:46;;;;;;;0.40;0.40;;;;;;;15.07;59.38;99094.66;4779477;29;20107;-90
2022/06/05 04:16:19;;;;;;;0.50;0.50;;;;;;;15.10;59.01;99086.75;4793213;29;20062;-87
2022/06/05 04:18:47;;;;;;;0.40;0.40;;;;;;;15.08;59.29;99099.00;4776541;29;20090;-86
2022/06/05 04:21:23;;;;;;;0.40;0.40;;;;;;;15.08;59.38;99107.16;4787477;29;20052;-88
2022/06/05 04:23:53;;;;;;;0.40;0.40;;;;;;;15.00;59.78;99119.38;4777728;30;20062;-90
2022/06/05 04:26:22;;;;;;;0.40;0.40;;;;;;;14.89;59.51;99104.16;4777607;30;20082;-90
2022/06/05 04:28:52;;;;;;;0.50;0.50;;;;;;;14.91;59.75;99118.28;4792171;29;20058;-90
2022/06/05 04:31:34;;;;;;;0.45;0.45;;;;;;;14.92;59.83;99114.47;4790745;29;20062;-89
2022/06/05 04:34:12;;;;;;;0.43;0.43;;;;;;;14.74;59.85;99113.91;4764816;29;20141;-91
2022/06/05 04:36:47;;;;;;;0.50;0.50;;;;;;;14.56;60.59;99109.00;4811120;29;20058;-90
2022/06/05 04:39:18;;;;;;;0.40;0.40;;;;;;;14.32;61.00;99095.84;4796558;29;20051;-91
2022/06/05 04:41:48;;;;;;;0.40;0.40;;;;;;;14.37;61.25;99115.97;4818879;29;20046;-86
2022/06/05 04:44:21;;;;;;;0.40;0.40;;;;;;;14.34;61.60;99122.75;4812995;29;20051;-93
2022/06/05 04:46:56;;;;;;;0.40;0.40;;;;;;;14.03;61.94;99124.53;4780611;29;20058;-89
2022/06/05 04:49:30;;;;;;;0.40;0.40;;;;;;;13.80;62.78;99123.84;4557104;29;10000881;-90
2022/06/05 04:52:05;;;;;;;0.40;0.40;;;;;;;13.52;63.40;99151.31;4775534;30;20356;-92
2022/06/05 04:55:03;;;;;;;0.40;0.40;;;;;;;13.33;64.84;99142.78;4789483;30;20074;-90
2022/06/05 04:58:11;;;;;;;0.40;0.40;;;;;;;13.05;66.51;99138.44;4771738;30;20055;-91
2022/06/05 05:01:20;;;;;;;;;;;;;;;;;;;;;
2022/06/05 05:04:01;;;;;;;0.40;0.40;;;;;;;13.37;67.01;99158.28;4787535;30;20055;-88
2022/06/05 05:06:30;;;;;;;0.40;0.40;;;;;;;13.10;67.75;99163.69;4769484;30;20128;-89
2022/06/05 05:08:58;;;;;;;0.40;0.40;;;;;;;12.76;69.34;99179.31;4785770;29;20067;-90
2022/06/05 05:11:41;;;;;;;0.40;0.40;;;;;;;12.46;70.48;99177.94;4787709;29;20051;-92
2022/06/05 05:14:30;;;;;;;0.40;0.40;;;;;;;12.22;72.30;99179.25;4779365;30;20059;-92
2022/06/05 05:17:29;;;;;;;0.40;0.40;;;;;;;12.23;72.81;99164.63;4774595;30;20056;-92
2022/06/05 05:20:17;;;;;;;0.40;0.40;;;;;;;12.29;73.10;99166.34;4760426;30;20056;-90
2022/06/05 05:23:01;;;;;;;0.35;0.35;;;;;;;12.24;73.95;99163.56;4765961;30;20089;-90
2022/06/05 05:26:13;;;;;;;0.40;0.40;;;;;;;12.13;74.82;99165.34;4777639;30;20154;-90
2022/06/05 05:28:51;;;;;;;0.40;0.40;;;;;;;12.03;75.58;99167.91;4761394;30;20402;-92
2022/06/05 05:32:11;;;;;;;0.47;0.47;;;;;;;12.02;76.91;99166.25;4772451;30;20570;-90
2022/06/05 05:34:50;;;;;;;0.40;0.40;;;;;;;11.87;77.62;99151.44;4781741;29;20482;-88
2022/06/05 05:37:57;;;;;;;0.40;0.40;;;;;;;11.85;79.01;99158.97;4748074;30;20059;-94
2022/06/05 05:45:55;;;;;;;0.50;0.50;;;;;;;11.64;79.71;99119.19;4783016;30;20066;-93
2022/06/05 05:49:53;;;;;;;0.50;0.50;;;;;;;11.99;79.50;99127.00;4789527;29;20062;-93
2022/06/05 05:52:41;;;;;;;0.40;0.40;;;;;;;12.38;77.96;99132.34;4734122;30;20507;-93
2022/06/05 05:55:19;;;;;;;0.50;0.50;;;;;;;12.53;77.72;99127.13;4742544;30;20052;-91
2022/06/05 05:57:48;;;;;;;0.50;0.50;;;;;;;12.53;78.11;99116.28;4750212;30;20103;-90
2022/06/05 06:00:26;;;;;;;0.50;0.50;;;;;;;12.51;78.67;99109.50;4750311;30;20456;-94
2022/06/05 06:02:58;;;;;;;0.50;0.50;;;;;;;12.48;78.39;99112.69;4769306;30;20063;-93
2022/06/05 06:05:44;;;;;;;0.50;0.50;;;;;;;12.58;78.18;99097.41;4737488;30;20039;-93
2022/06/05 06:08:24;;;;;;;0.40;0.40;;;;;;;12.63;78.03;99102.03;4765437;30;20500;-94
2022/06/05 06:11:26;;;;;;;0.40;0.40;;;;;;;12.63;78.63;99114.75;4750082;30;20071;-94
2022/06/05 06:14:41;;;;;;;0.50;0.50;;;;;;;12.34;78.69;99096.03;4747748;30;20064;-92
2022/06/05 06:18:07;;;;;;;0.50;0.50;;;;;;;12.43;77.66;99099.94;4751950;30;20060;-91
2022/06/05 06:20:54;;;;;;;0.50;0.50;;;;;;;13.08;78.42;99106.22;4762146;29;20063;-94
2022/06/05 06:23:56;;;;;;;0.50;0.50;;;;;;;13.52;77.61;99102.50;4764850;30;20126;-93
2022/06/05 06:26:41;;;;;;;0.43;0.43;;;;;;;13.68;76.30;99095.31;4770582;29;20043;-94
2022/06/05 06:29:18;;;;;;;0.60;0.60;;;;;;;13.76;73.13;99101.03;4764507;30;20051;-94
2022/06/05 06:31:55;;;;;;;0.50;0.50;;;;;;;13.60;73.29;99108.28;4771786;29;20133;-94
2022/06/05 06:34:27;;;;;;;0.50;0.50;;;;;;;13.77;72.76;99107.28;4802797;29;20051;-92
2022/06/05 06:36:57;;;;;;;0.50;0.50;;;;;;;13.87;72.09;99110.88;4777758;30;20583;-93
2022/06/05 06:39:37;;;;;;;0.50;0.50;;;;;;;14.18;72.63;99111.03;4797118;29;20095;-84
2022/06/05 06:42:08;;;;;;;0.50;0.50;;;;;;;14.76;71.17;99118.25;4781777;30;20039;-93
2022/06/05 06:44:36;;;;;;;0.50;0.50;;;;;;;15.05;68.38;99116.66;4783599;29;20277;-91
2022/06/05 06:47:03;;;;;;;0.50;0.50;;;;;;;14.85;68.42;99122.88;4802507;29;20047;-86
2022/06/05 06:49:33;;;;;;;0.50;0.50;;;;;;;14.40;69.38;99120.84;4799185;29;20486;-94
2022/06/05 06:52:01;;;;;;;0.38;0.38;;;;;;;14.26;69.85;99126.78;4809222;29;20050;-96
2022/06/05 06:55:03;;;;;;;0.50;0.50;;;;;;;14.72;68.73;99134.28;4801456;29;20062;-91
2022/06/05 06:58:27;;;;;;;0.55;0.55;;;;;;;14.65;67.78;99126.38;4783593;29;20047;-94
2022/06/05 07:00:54;;;;;;;0.40;0.40;;;;;;;14.81;67.44;99126.41;4808750;29;20047;-88
2022/06/05 07:03:36;;;;;;;0.40;0.40;;;;;;;14.65;68.10;99128.28;4819380;29;20111;-93
2022/06/05 07:06:10;;;;;;;0.50;0.50;;;;;;;14.43;68.23;99128.47;4802805;29;20074;-95
2022/06/05 07:08:42;;;;;;;0.60;0.60;;;;;;;14.71;67.21;99138.06;4766947;29;20492;-93
2022/06/05 07:11:19;;;;;;;0.50;0.50;;;;;;;14.80;66.86;99139.19;4781863;29;20201;-93
2022/06/05 07:13:49;;;;;;;0.40;0.40;;;;;;;14.58;66.67;99136.69;4793660;29;20438;-93
2022/06/05 07:16:17;;;;;;;0.40;0.40;;;;;;;14.41;67.73;99144.22;4809213;29;20058;-90
2022/06/05 07:18:52;;;;;;;0.40;0.40;;;;;;;14.29;67.59;99144.44;4810134;29;20058;-90
2022/06/05 07:21:26;;;;;;;0.40;0.40;;;;;;;14.24;68.31;99137.09;4815777;29;20040;-95
2022/06/05 07:24:04;;;;;;;0.50;0.50;;;;;;;14.32;67.55;99138.47;4785572;29;20054;-90
2022/06/05 07:26:36;;;;;;;0.70;0.70;;;;;;;15.02;66.58;99138.16;4800975;29;20055;-87
2022/06/05 07:29:04;;;;;;;0.40;0.40;;;;;;;15.64;64.99;99133.50;4820394;29;20065;-85
2022/06/05 07:31:38;;;;;;;0.40;0.40;;;;;;;15.76;63.80;99137.56;4786545;29;20081;-84
2022/06/05 07:34:07;;;;;;;0.60;0.60;;;;;;;15.64;63.28;99141.66;4814115;29;20074;-82
2022/06/05 07:36:34;;;;;;;0.50;0.50;;;;;;;15.85;63.44;99135.13;4801518;29;20055;-84
2022/06/05 07:39:03;;;;;;;0.45;0.45;;;;;;;16.34;62.82;99137.13;4806230;29;20058;-84
2022/06/05 07:41:33;;;;;;;0.40;0.40;;;;;;;16.12;62.13;99133.94;4789469;29;20073;-86
2022/06/05 07:44:01;;;;;;;0.40;0.40;;;;;;;15.80;62.61;99127.78;4814415;29;20078;-86
2022/06/05 07:46:30;;;;;;;0.43;0.43;;;;;;;15.64;62.90;99130.78;4803065;29;20157;-86
2022/06/05 07:48:58;;;;;;;0.60;0.60;;;;;;;15.74;62.52;99133.50;4812696;29;20117;-86
2022/06/05 07:54:30;;;;;;;0.50;0.50;;;;;;;16.53;60.05;99131.84;4802264;29;20070;-85
2022/06/05 07:57:04;;;;;;;0.30;0.30;;;;;;;15.90;60.62;99124.22;4788631;29;20065;-86
2022/06/05 07:59:36;;;;;;;0.38;0.38;;;;;;;15.04;63.62;99138.66;4822064;29;20424;-86
2022/06/05 08:02:20;;;;;;;0.30;0.30;;;;;;;14.71;64.35;99146.22;4796573;29;20481;-87
2022/06/05 08:04:48;;;;;;;0.38;0.38;;;;;;;14.20;66.07;99144.13;4788478;29;20535;-85
2022/06/05 08:07:19;;;;;;;0.40;0.40;;;;;;;14.08;67.23;99154.41;4780467;30;20070;-87
2022/06/05 08:09:47;;;;;;;0.40;0.40;;;;;;;13.99;67.44;99164.09;4771041;30;20059;-85
2022/06/05 08:12:17;;;;;;;0.43;0.43;;;;;;;14.01;67.85;99159.25;4769735;30;20055;-86
2022/06/05 08:14:46;;;;;;;0.40;0.40;;;;;;;14.26;67.69;99155.84;4770650;30;20117;-85
2022/06/05 08:17:16;;;;;;;0.40;0.40;;;;;;;14.55;66.47;99158.94;4765853;30;20094;-86
2022/06/05 08:19:45;;;;;;;0.45;0.45;;;;;;;14.81;65.58;99154.41;4762038;30;20504;-88
2022/06/05 08:22:13;;;;;;;0.50;0.50;;;;;;;15.05;64.56;99148.47;4767931;30;20151;-87
2022/06/05 08:24:40;;;;;;;0.50;0.50;;;;;;;15.20;63.93;99155.81;4783603;29;20534;-86
2022/06/05 08:27:17;;;;;;;0.50;0.50;;;;;;;15.37;63.78;99161.81;4787521;29;20141;-87
2022/06/05 08:29:45;;;;;;;0.50;0.50;;;;;;;15.23;63.75;99150.66;4786307;30;20055;-86
2022/06/05 08:32:13;;;;;;;0.50;0.50;;;;;;;15.22;63.06;99153.63;4784510;30;20081;-87
2022/06/05 08:34:41;;;;;;;0.70;0.70;;;;;;;15.62;62.01;99152.78;4781353;29;20051;-86
2022/06/05 08:42:46;;;;;;;0.50;0.50;;;;;;;16.61;57.90;99133.16;4778768;30;20067;-87
2022/06/05 08:45:24;;;;;;;0.40;0.40;;;;;;;15.86;59.87;99133.22;4789034;30;20067;-88
2022/06/05 08:47:56;;;;;;;0.40;0.40;;;;;;;15.42;60.12;99141.94;4788891;30;20083;-89
2022/06/05 08:50:48;;;;;;;0.40;0.40;;;;;;;15.17;61.24;99138.16;4786975;30;20064;-89
2022/06/05 08:53:15;;;;;;;0.40;0.40;;;;;;;14.86;61.64;99146.28;4791751;29;20035;-89
2022/06/05 08:55:44;;;;;;;0.40;0.40;;;;;;;14.72;62.56;99140.53;4796537;29;20059;-88
2022/06/05 08:58:39;;;;;;;0.40;0.40;;;;;;;14.87;62.59;99138.94;4792462;30;20167;-88
2022/06/05 09:01:21;;;;;;;0.50;0.50;;;;;;;14.87;62.09;99137.03;4785874;30;20260;-87
2022/06/05 09:03:52;;;;;;;0.50;0.50;;;;;;;14.87;62.06;99145.19;4789132;29;20077;-87
2022/06/05 09:06:50;;;;;;;0.50;0.50;;;;;;;15.05;62.02;99130.25;4800645;29;20047;-89
2022/06/05 09:09:23;;;;;;;0.50;0.50;;;;;;;15.15;61.25;99138.41;4774814;30;20067;-90
2022/06/05 09:11:54;;;;;;;;;;;;;;;14.98;61.91;99140.56;4771158;30;20055;-86
2022/06/05 09:14:47;;;;;;;0.45;0.45;;;;;;;15.01;62.32;99134.59;4770182;30;19973;-86
2022/06/05 09:17:17;;;;;;;0.80;0.80;;;;;;;16.29;58.37;99131.69;4767707;30;20082;-87
2022/06/05 09:19:46;;;;;;;0.80;0.80;;;;;;;16.97;56.21;99131.06;4779918;30;20108;-86
2022/06/05 09:22:22;;;;;;;0.90;0.90;;;;;;;17.83;54.25;99131.44;4786032;29;20054;-86
2022/06/05 09:25:01;;;;;;;0.80;0.80;;;;;;;18.56;51.90;99130.31;4785893;29;20059;-83
2022/06/05 09:27:58;;;;;;;0.90;0.90;;;;;;;19.26;50.00;99126.00;4785279;30;20055;-86
2022/06/05 09:30:31;;;;;;;0.70;0.70;;;;;;;19.30;49.16;99132.50;4779836;30;20112;-86
2022/06/05 09:33:14;;;;;;;0.40;0.40;;;;;;;18.67;50.91;99121.97;4798191;30;20059;-86
2022/06/05 09:36:04;;;;;;;0.40;0.40;;;;;;;18.55;51.24;99128.66;4796577;30;20067;-84
2022/06/05 09:38:37;;;;;;;0.40;0.40;;;;;;;18.44;50.80;99132.66;4802944;30;20062;-85
2022/06/05 09:41:11;;;;;;;0.40;0.40;;;;;;;17.53;52.68;99129.81;4799578;30;20047;-84
2022/06/05 09:44:02;;;;;;;;;;;;;;;17.47;53.10;99128.22;4790508;30;20063;-83
2022/06/05 09:46:42;;;;;;;0.63;0.63;;;;;;;17.80;51.86;99140.22;4793287;30;19964;-85
2022/06/05 09:49:13;;;;;;;0.50;0.50;;;;;;;17.95;50.43;99131.88;4784683;30;20055;-86
2022/06/05 09:51:43;;;;;;;0.70;0.70;;;;;;;18.29;49.44;99141.03;4781067;30;20063;-85
2022/06/05 09:54:31;;;;;;;0.60;0.60;;;;;;;19.38;47.57;99131.00;4783141;29;20051;-84
2022/06/05 10:00:44;;;;;;;0.50;0.50;;;;;;;18.13;49.54;99132.22;4776681;30;20062;-86
2022/06/05 10:03:13;;;;;;;0.50;0.50;;;;;;;17.75;50.95;99132.88;4786533;30;20515;-86
2022/06/05 10:05:45;;;;;;;0.60;0.60;;;;;;;17.53;50.28;99132.53;4755429;30;20058;-87
2022/06/05 10:08:21;;;;;;;0.50;0.50;;;;;;;17.58;50.69;99132.50;4785708;29;20059;-84
2022/06/05 10:10:59;;;;;;;0.60;0.60;;;;;;;17.68;50.25;99126.94;4786290;30;20483;-86
2022/06/05 10:13:46;;;;;;;0.60;0.60;;;;;;;17.70;50.51;99126.66;4787055;29;20074;-87
2022/06/05 10:16:54;;;;;;;0.68;0.68;;;;;;;18.21;50.36;99122.56;4777412;30;20081;-85
2022/06/05 10:19:21;;;;;;;0.70;0.70;;;;;;;18.90;48.61;99129.28;4765501;30;20056;-84
2022/06/05 10:21:58;;;;;;;0.90;0.90;;;;;;;19.16;47.94;99128.91;4774949;30;20055;-86
2022/06/05 10:24:34;;;;;;;0.70;0.70;;;;;;;19.84;46.87;99122.81;4765371;30;20090;-85
2022/06/05 10:27:05;;;;;;;0.80;0.80;;;;;;;20.64;44.68;99117.13;4787745;30;20063;-85
2022/06/05 10:29:37;;;;;;;0.90;0.90;;;;;;;21.51;42.86;99115.84;4787492;30;20063;-83
2022/06/05 10:32:10;;;;;;;0.90;0.90;;;;;;;22.60;41.10;99120.81;4786489;30;20114;-85
2022/06/05 10:34:46;;;;;;;0.30;0.30;;;;;;;22.28;40.47;99108.28;4790673;29;20051;-85
2022/06/05 10:37:45;;;;;;;0.80;0.80;;;;;;;22.85;39.95;99119.22;4784646;30;20074;-86
2022/06/05 10:40:43;;;;;;;0.90;0.90;;;;;;;23.03;38.42;99113.75;4758783;30;20060;-86
2022/06/05 10:43:26;;;;;;;0.80;0.80;;;;;;;23.72;37.77;99121.06;4751809;30;20502;-85
2022/06/05 10:45:58;;;;;;;0.30;0.30;;;;;;;22.54;38.81;99105.59;4766016;30;20060;-86
2022/06/05 10:48:31;;;;;;;0.73;0.73;;;;;;;20.46;41.95;99111.44;4770669;30;20144;-85
2022/06/05 10:51:04;;;;;;;0.90;0.90;;;;;;;21.23;40.87;99111.63;4785457;30;20067;-85
2022/06/05 10:53:42;;;;;;;0.85;0.85;;;;;;;22.26;39.15;99105.88;4775256;30;20059;-84
2022/06/05 10:56:29;;;;;;;0.50;0.50;;;;;;;22.73;37.92;99106.09;4775642;30;20128;-84
2022/06/05 10:59:14;;;;;;;0.80;0.80;;;;;;;22.40;39.06;99100.22;4789947;30;20081;-86
2022/06/05 11:02:03;;;;;;;0.40;0.40;;;;;;;22.43;38.98;99104.28;4760171;30;20179;-84
2022/06/05 11:04:48;;;;;;;0.60;0.60;;;;;;;21.97;38.51;99111.06;4790409;30;20482;-84
2022/06/05 11:07:51;;;;;;;0.90;0.90;;;;;;;21.09;40.59;99095.22;4788584;30;20055;-84
2022/06/05 11:10:21;;;;;;;0.60;0.60;;;;;;;21.89;39.91;99103.63;4758449;30;20071;-84
2022/06/05 11:16:10;;;;;;;0.80;0.80;;;;;;;24.33;35.88;99105.13;4768478;30;20179;-84
2022/06/05 11:19:10;;;;;;;0.80;0.80;;;;;;;24.87;34.45;99087.88;4769721;30;20478;-83
2022/06/05 11:21:40;;;;;;;0.30;0.30;;;;;;;24.40;34.94;99091.56;4770695;29;20474;-85
2022/06/05 11:24:33;;;;;;;0.30;0.30;;;;;;;22.83;37.24;99074.69;4769857;30;20087;-84
2022/06/05 11:27:10;;;;;;;0.90;0.90;;;;;;;21.80;38.71;99101.66;4770439;29;20094;-83
2022/06/05 11:29:49;;;;;;;0.90;0.90;;;;;;;22.98;37.41;99100.16;4769854;30;20143;-84
2022/06/05 11:32:22;;;;;;;0.40;0.40;;;;;;;22.07;38.04;99089.59;4771314;30;20139;-85
2022/06/05 11:34:56;;;;;;;0.80;0.80;;;;;;;23.31;35.96;99090.22;4773815;30;20584;-84
2022/06/05 11:37:45;;;;;;;0.80;0.80;;;;;;;24.44;33.98;99092.53;4768494;30;20059;-83
2022/06/05 11:40:43;;;;;;;0.30;0.30;;;;;;;24.14;34.11;99090.94;4770146;30;20117;-84
2022/06/05 11:43:35;;;;;;;1.00;1.00;;;;;;;24.13;34.36;99086.53;4779225;30;20504;-85
2022/06/05 11:46:30;;;;;;;0.30;0.30;;;;;;;23.56;36.42;99079.47;4768989;30;20056;-85
2022/06/05 11:49:12;;;;;;;0.30;0.30;;;;;;;22.80;37.61;99085.56;4769187;30;20120;-85
2022/06/05 11:52:00;;;;;;;0.50;0.50;;;;;;;22.71;38.00;99085.53;4767018;30;20120;-83
2022/06/05 11:54:43;;;;;;;0.90;0.90;;;;;;;23.64;36.97;99084.13;4765830;30;20098;-83
2022/06/05 11:57:24;;;;;;;0.80;0.80;;;;;;;25.49;34.35;99080.63;4751317;30;20095;-84
2022/06/05 12:00:16;;;;;;;0.75;0.75;;;;;;;26.17;34.08;99083.72;4750360;30;20052;-83
2022/06/05 12:02:53;;;;;;;0.70;0.70;;;;;;;26.94;32.37;99073.75;4752686;30;20139;-83
2022/06/05 12:05:36;;;;;;;0.70;0.70;;;;;;;27.21;32.33;99066.66;4751811;30;20082;-81
2022/06/05 12:08:13;;;;;;;0.65;0.65;;;;;;;28.11;30.62;99078.09;4758052;30;20059;-85
2022/06/05 12:10:50;;;;;;;0.60;0.60;;;;;;;28.12;30.33;99073.34;4768139;30;20056;-84
2022/06/05 12:13:31;;;;;;;0.60;0.60;;;;;;;28.35;30.27;99068.72;4772304;30;20055;-84
2022/06/05 12:16:09;;;;;;;0.60;0.60;;;;;;;28.62;29.46;99066.97;4784276;30;20091;-84
2022/06/05 12:18:49;;;;;;;0.60;0.60;;;;;;;28.74;29.22;99068.81;4757455;30;20085;-84
2022/06/05 12:21:46;;;;;;;0.60;0.60;;;;;;;28.82;28.31;99075.31;4771359;30;20066;-84
2022/06/05 12:24:29;;;;;;;0.60;0.60;;;;;;;29.12;27.94;99075.56;4769802;30;20642;-83
2022/06/05 12:27:11;;;;;;;0.60;0.60;;;;;;;29.78;28.06;99070.84;4769610;30;20063;-83
2022/06/05 12:29:51;;;;;;;0.60;0.60;;;;;;;29.97;26.93;99067.16;4767979;30;20469;-82
2022/06/05 12:32:45;;;;;;;0.60;0.60;;;;;;;30.66;26.24;99056.66;4778752;30;20523;-82
2022/06/05 12:35:16;;;;;;;0.17;0.17;;;;;;;30.13;26.72;99056.69;4785666;30;20055;-84
2022/06/05 12:37:51;;;;;;;0.50;0.50;;;;;;;30.37;26.70;99046.31;4785392;30;20066;-83
2022/06/05 12:40:22;;;;;;;0.60;0.60;;;;;;;31.29;25.99;99054.22;4786078;30;20167;-84
2022/06/05 12:42:55;;;;;;;0.50;0.50;;;;;;;32.25;25.16;99061.84;4770985;30;20496;-84
2022/06/05 12:45:29;;;;;;;0.50;0.50;;;;;;;32.05;24.07;99053.75;4785861;30;20065;-84
2022/06/05 12:48:11;;;;;;;0.55;0.55;;;;;;;31.66;25.08;99059.78;4771670;30;20052;-85